createdAt,value
2022-10-23T00:04:22.413Z,97186.94
2022-10-23T00:09:43.268Z,97187.63
2022-10-23T00:15:04.413Z,97182.91
2022-10-23T00:20:25.616Z,97194.03
2022-10-23T00:25:46.399Z,97181.94
2022-10-23T00:31:07.242Z,97182.22
2022-10-23T00:36:28.204Z,97176.81
2022-10-23T00:41:49.125Z,97179.59
2022-10-23T00:47:10.749Z,97177.50
2022-10-23T00:52:33.636Z,97177.34
2022-10-23T00:57:54.464Z,97177.59
2022-10-23T01:03:17.165Z,97180.09
2022-10-23T01:08:47.613Z,97182.41
2022-10-23T01:14:26.789Z,97183.22
2022-10-23T01:19:56.568Z,97184.03
2022-10-23T01:25:46.243Z,97183.28
2022-10-23T01:31:14.270Z,97190.69
2022-10-23T01:36:39.685Z,97197.38
2022-10-23T01:42:10.579Z,97196.81
2022-10-23T01:47:36.018Z,97195.56
2022-10-23T01:52:59.910Z,97189.41
2022-10-23T01:58:21.994Z,97174.56
2022-10-23T02:03:44.666Z,97162.47
2022-10-23T02:09:06.348Z,97171.09
2022-10-23T02:14:37.494Z,97171.00
2022-10-23T02:20:07.802Z,97170.84
2022-10-23T02:25:36.506Z,97167.94
2022-10-23T02:31:00.391Z,97176.72
2022-10-23T02:36:21.555Z,97171.13
2022-10-23T02:41:50.049Z,97169.19
2022-10-23T02:47:27.627Z,97159.75
2022-10-23T02:52:52.333Z,97158.84
2022-10-23T02:58:19.319Z,97159.00
2022-10-23T03:04:01.072Z,97153.84
2022-10-23T03:09:22.031Z,97175.03
2022-10-23T03:14:43.608Z,97161.75
2022-10-23T03:20:06.613Z,97165.22
2022-10-23T03:25:27.677Z,97169.91
2022-10-23T03:30:50.937Z,97176.63
2022-10-23T03:36:11.995Z,97166.19
2022-10-23T03:41:33.880Z,97160.19
2022-10-23T03:46:54.477Z,97155.63
2022-10-23T03:52:15.186Z,97164.78
2022-10-23T03:57:36.343Z,97178.59
2022-10-23T04:02:57.513Z,97167.63
2022-10-23T04:08:20.191Z,97172.47
2022-10-23T04:13:43.566Z,97162.31
2022-10-23T04:19:04.397Z,97150.66
2022-10-23T04:24:26.082Z,97146.53
2022-10-23T04:29:46.685Z,97145.91
2022-10-23T04:35:07.893Z,97147.69
2022-10-23T04:40:28.595Z,97140.53
2022-10-23T04:45:50.258Z,97146.38
2022-10-23T04:51:11.344Z,97150.41
2022-10-23T04:56:48.569Z,97141.56
2022-10-23T05:02:14.645Z,97137.00
2022-10-23T05:07:36.449Z,97135.88
2022-10-23T05:13:23.910Z,97143.78
2022-10-23T05:18:47.630Z,97146.97
2022-10-23T05:24:08.695Z,97142.59
2022-10-23T05:29:29.942Z,97135.03
2022-10-23T05:34:50.779Z,97145.00
2022-10-23T05:40:12.343Z,97149.50
2022-10-23T05:45:36.993Z,97150.22
2022-10-23T05:51:20.294Z,97139.34
2022-10-23T05:56:55.880Z,97137.63
2022-10-23T06:02:25.015Z,97153.16
2022-10-23T06:07:51.028Z,97147.16
2022-10-23T06:13:12.629Z,97154.56
2022-10-23T06:18:34.091Z,97171.38
2022-10-23T06:24:00.353Z,97181.03
2022-10-23T06:29:30.218Z,97172.66
2022-10-23T06:34:51.115Z,97183.69
2022-10-23T06:40:11.961Z,97196.94
2022-10-23T06:45:52.983Z,97192.06
2022-10-23T06:51:36.382Z,97194.06
2022-10-23T06:56:58.624Z,97200.91
2022-10-23T07:02:29.275Z,97201.88
2022-10-23T07:07:52.220Z,97206.28
2022-10-23T07:13:18.771Z,97208.06
2022-10-23T07:19:01.237Z,97200.94
2022-10-23T07:24:22.185Z,97189.50
2022-10-23T07:29:43.297Z,97195.09
2022-10-23T07:35:04.968Z,97190.09
2022-10-23T07:40:28.008Z,97186.53
2022-10-23T07:45:50.464Z,97178.16
2022-10-23T07:51:17.718Z,97171.66
2022-10-23T07:56:41.506Z,97179.00
2022-10-23T08:02:14.261Z,97175.34
2022-10-23T08:07:36.484Z,97179.78
2022-10-23T08:12:57.017Z,97179.50
2022-10-23T08:18:35.287Z,97181.72
2022-10-23T08:23:57.598Z,97183.22
2022-10-23T08:29:18.943Z,97172.78
2022-10-23T08:34:40.031Z,97184.19
2022-10-23T08:40:00.553Z,97176.91
2022-10-23T08:45:51.162Z,97172.09
2022-10-23T08:51:41.847Z,97173.19
2022-10-23T08:57:11.472Z,97154.56
2022-10-23T09:02:43.647Z,97159.75
2022-10-23T09:08:16.724Z,97139.13
2022-10-23T09:13:48.620Z,97131.94
2022-10-23T09:19:16.421Z,97130.03
2022-10-23T09:24:37.136Z,97129.09
2022-10-23T09:29:59.416Z,97123.41
2022-10-23T09:35:25.681Z,97127.03
2022-10-23T09:40:47.002Z,97128.00
2022-10-23T09:46:08.013Z,97133.78
2022-10-23T09:51:30.543Z,97141.25
2022-10-23T09:56:55.158Z,97132.63
2022-10-23T10:02:27.367Z,97136.22
2022-10-23T10:08:20.700Z,97122.59
2022-10-23T10:14:03.629Z,97125.31
2022-10-23T10:19:39.240Z,97118.63
2022-10-23T10:25:15.176Z,97119.81
2022-10-23T10:30:52.460Z,97109.81
2022-10-23T10:36:13.125Z,97108.19
2022-10-23T10:41:42.877Z,97101.44
2022-10-23T10:47:21.186Z,97093.09
2022-10-23T10:53:07.933Z,97077.13
2022-10-23T10:58:53.973Z,97060.03
2022-10-23T11:04:40.966Z,97068.72
2022-10-23T11:10:13.336Z,97061.47
2022-10-23T11:15:40.869Z,97051.69
2022-10-23T11:21:11.688Z,97042.91
2022-10-23T11:26:46.993Z,97038.81
2022-10-23T11:32:40.388Z,97020.81
2022-10-23T11:38:25.729Z,97019.56
2022-10-23T11:43:53.301Z,97015.25
2022-10-23T11:49:21.277Z,97016.25
2022-10-23T11:54:42.115Z,96999.25
2022-10-23T12:00:02.774Z,97002.56
2022-10-23T12:05:41.724Z,96998.19
2022-10-23T12:11:02.946Z,96987.53
2022-10-23T12:16:34.881Z,96966.53
2022-10-23T12:21:59.364Z,96974.09
2022-10-23T12:27:32.975Z,96955.97
2022-10-23T12:33:15.702Z,96950.28
2022-10-23T12:38:44.934Z,96937.00
2022-10-23T12:44:11.877Z,96935.63
2022-10-23T12:49:34.283Z,96923.09
2022-10-23T12:54:55.141Z,96921.03
2022-10-23T13:00:22.911Z,96916.41
2022-10-23T13:05:44.287Z,96914.53
2022-10-23T13:11:06.400Z,96892.28
2022-10-23T13:16:31.461Z,96902.63
2022-10-23T13:21:52.271Z,96900.09
2022-10-23T13:27:45.728Z,96897.72
2022-10-23T13:33:37.687Z,96903.75
2022-10-23T13:39:10.532Z,96900.38
2022-10-23T13:44:31.910Z,96903.19
2022-10-23T13:49:52.638Z,96900.63
2022-10-23T13:55:23.722Z,96891.81
2022-10-23T14:00:46.122Z,96900.53
2022-10-23T14:06:07.164Z,96885.72
2022-10-23T14:11:27.954Z,96878.56
2022-10-23T14:16:48.683Z,96875.44
2022-10-23T14:22:09.374Z,96871.19
2022-10-23T14:27:30.635Z,96862.81
2022-10-23T14:32:52.344Z,96861.56
2022-10-23T14:38:13.213Z,96873.69
2022-10-23T14:43:33.713Z,96881.78
2022-10-23T14:48:57.492Z,96871.97
2022-10-23T14:54:20.791Z,96865.09
2022-10-23T14:59:41.325Z,96866.19
2022-10-23T15:05:02.005Z,96842.97
2022-10-23T15:10:22.859Z,96829.09
2022-10-23T15:15:44.266Z,96838.56
2022-10-23T15:21:06.475Z,96836.06
2022-10-23T15:26:27.275Z,96842.56
2022-10-23T15:31:57.313Z,96821.63
2022-10-23T15:37:18.427Z,96826.00
2022-10-23T15:42:39.041Z,96826.09
2022-10-23T15:47:59.711Z,96841.59
2022-10-23T15:53:20.319Z,96837.06
2022-10-23T15:58:40.849Z,96846.38
2022-10-23T16:04:02.319Z,96842.53
2022-10-23T16:09:23.222Z,96830.09
2022-10-23T16:14:44.544Z,96821.75
2022-10-23T16:20:05.693Z,96816.97
2022-10-23T16:25:26.986Z,96818.28
2022-10-23T16:30:47.661Z,96824.53
2022-10-23T16:36:09.701Z,96813.09
2022-10-23T16:41:49.389Z,96821.47
2022-10-23T16:47:13.276Z,96819.88
2022-10-23T16:52:34.724Z,96823.97
2022-10-23T16:57:56.939Z,96807.91
2022-10-23T17:03:17.868Z,96801.63
2022-10-23T17:08:39.328Z,96798.81
2022-10-23T17:14:03.929Z,96804.09
2022-10-23T17:19:44.737Z,96803.97
2022-10-23T17:25:07.474Z,96803.97
2022-10-23T17:30:28.403Z,96786.75
2022-10-23T17:35:50.899Z,96806.59
2022-10-23T17:41:14.000Z,96803.47
2022-10-23T17:46:34.566Z,96787.22
2022-10-23T17:51:57.156Z,96778.19
2022-10-23T17:57:18.114Z,96765.19
2022-10-23T18:02:38.774Z,96768.00
2022-10-23T18:07:59.663Z,96784.59
2022-10-23T18:13:21.666Z,96781.19
2022-10-23T18:18:44.447Z,96795.25
2022-10-23T18:24:05.987Z,96799.84
2022-10-23T18:29:26.976Z,96803.44
2022-10-23T18:34:47.621Z,96779.19
2022-10-23T18:40:08.969Z,96782.09
2022-10-23T18:45:29.908Z,96778.28
2022-10-23T18:50:52.010Z,96788.63
2022-10-23T18:56:21.741Z,96794.72
2022-10-23T19:01:43.237Z,96785.03
2022-10-23T19:07:04.327Z,96766.34
2022-10-23T19:12:25.073Z,96748.16
2022-10-23T19:17:46.081Z,96743.50
2022-10-23T19:23:07.103Z,96742.81
2022-10-23T19:28:28.283Z,96736.84
2022-10-23T19:33:50.430Z,96734.72
2022-10-23T19:39:11.082Z,96716.72
2022-10-23T19:44:31.810Z,96713.44
2022-10-23T19:49:52.539Z,96685.31
2022-10-23T19:55:13.215Z,96686.09
2022-10-23T20:00:33.888Z,96702.06
2022-10-23T20:05:54.409Z,96704.47
2022-10-23T20:11:24.895Z,96696.50
2022-10-23T20:16:50.058Z,96691.41
2022-10-23T20:22:12.988Z,96693.00
2022-10-23T20:27:33.639Z,96694.47
2022-10-23T20:32:54.441Z,96687.91
2022-10-23T20:38:15.123Z,96686.09
2022-10-23T20:43:35.810Z,96674.44
2022-10-23T20:48:56.449Z,96680.66
2022-10-23T20:54:17.219Z,96667.75
2022-10-23T20:59:37.906Z,96660.69
2022-10-23T21:04:58.903Z,96658.25
2022-10-23T21:10:19.928Z,96658.25
2022-10-23T21:15:40.598Z,96655.94
2022-10-23T21:21:01.333Z,96652.66
2022-10-23T21:26:23.295Z,96666.72
2022-10-23T21:31:44.142Z,96672.47
2022-10-23T21:37:12.873Z,96675.13
2022-10-23T21:42:34.580Z,96671.03
2022-10-23T21:48:01.513Z,96668.03
2022-10-23T21:53:22.417Z,96677.94
2022-10-23T21:58:42.922Z,96657.59
2022-10-23T22:04:03.631Z,96659.25
2022-10-23T22:09:24.343Z,96669.03
2022-10-23T22:14:45.216Z,96667.34
2022-10-23T22:20:06.407Z,96693.81
2022-10-23T22:25:26.942Z,96706.38
2022-10-23T22:30:47.747Z,96722.31
2022-10-23T22:36:08.784Z,96759.81
2022-10-23T22:41:29.432Z,96708.94
2022-10-23T22:46:50.047Z,96719.50
2022-10-23T22:52:10.794Z,96720.53
2022-10-23T22:57:31.342Z,96715.31
2022-10-23T23:02:51.990Z,96744.97
2022-10-23T23:08:13.795Z,96761.19
2022-10-23T23:13:35.062Z,96755.88
2022-10-23T23:18:59.381Z,96763.50
2022-10-23T23:24:20.146Z,96799.50
2022-10-23T23:29:40.739Z,96809.91
2022-10-23T23:35:02.132Z,96790.56
2022-10-23T23:40:22.846Z,96800.97
2022-10-23T23:45:43.405Z,96801.84
2022-10-23T23:51:05.109Z,96812.47
2022-10-23T23:56:25.740Z,96823.69
